METAR Data
IDs: Format: Raw Decoded Include TAF

Data at: 1350 UTC 08 May 2021

Region: TOP
KATL 081252Z 27004KT 10SM SCT130 16/05 A3013 RMK AO2 SLP200 T01560050

KBOS 081254Z 03013KT 10SM SCT070 BKN220 11/02 A2985 RMK AO2 SLP107 T01060022

KBWI 081254Z VRB05KT 10SM BKN048 OVC060 08/06 A2991 RMK AO2 RAE50 SLP128 P0008 T00780061

KCLE 081251Z 33013KT 10SM BKN020 OVC032 06/01 A3000 RMK AO2 SLP178 T00560011

KCLT 081252Z 27005KT 10SM FEW080 FEW120 15/06 A3005 RMK AO2 SLP173 T01500056

KCVG 081252Z 34007KT 10SM FEW130 07/01 A3012 RMK AO2 SLP200 T00670011 $

KDCA 081252Z 33005KT 10SM BKN043 OVC050 11/06 A2993 RMK AO2 RAE07 SLP134 BINOVC P0000 T01060056

KDEN 081253Z 30008KT 10SM FEW180 BKN220 13/03 A2974 RMK AO2 SLP000 T01280033

KDFW 081348Z 19021G31KT 10SM SCT012 BKN300 21/17 A2988 RMK AO2 PK WND 17033/1329

KDTW 081253Z 34010KT 10SM SCT020 06/01 A3006 RMK AO2 SLP181 T00560006

KEWR 081251Z 12004KT 10SM FEW022 FEW035 OVC070 12/07 A2984 RMK AO2 RAE1155B26E41 SLP104 P0000 T01220072

KFLL 081253Z 07012KT 10SM BKN047 BKN060 26/19 A3005 RMK AO2 SLP174 T02610189

KIAD 081252Z COR 32010KT 10SM BKN040 BKN050 08/06 A2992 RMK AO2 SLP133 T00830061

KIAH 081305Z 15004KT 10SM BKN017 BKN180 BKN250 22/19 A3002 RMK AO2 T02170189

KJFK 081251Z 09004KT 10SM -RA BKN055 OVC080 11/06 A2986 RMK AO2 RAB25 SLP112 P0000 T01060056

KLAS 081256Z 21005KT 10SM CLR 19/M04 A2984 RMK AO2 SLP082 T01941044

KLAX 081253Z 00000KT 10SM FEW016 BKN024 14/11 A2992 RMK AO2 SLP131 T01440106 $

KLGA 081251Z 07007KT 10SM FEW030 BKN060 OVC075 11/04 A2985 RMK AO2 RAB26E44 SLP107 P0000 T01110044

KMCO 081253Z 01012KT 10SM FEW080 22/11 A3013 RMK AO2 SLP202 T02170106

KMDW 081253Z 00000KT 10SM FEW038 FEW060 07/02 A3016 RMK AO2 SLP219 T00720017 $

KMEM 081254Z 17007KT 10SM BKN075 OVC090 16/08 A3010 RMK AO2 SLP189 T01560083

KMIA 081253Z 06009KT 10SM FEW035 SCT250 27/21 A3005 RMK AO2 SLP176 T02670211 $

KMSP 081253Z 16005KT 10SM FEW250 07/M02 A3013 RMK AO2 SLP207 T00721022

KORD 081251Z 01003KT 10SM FEW050 07/02 A3015 RMK AO2 SLP214 T00670017

KPDX 081253Z 00000KT 10SM FEW035 SCT090 07/02 A3040 RMK AO2 SLP294 T00670022

KPHL 081254Z 27010KT 10SM SCT016 BKN250 11/06 A2988 RMK AO2 SLP116 T01110061

KPHX 081251Z 10006KT 10SM SCT250 21/M02 A2981 RMK AO2 SLP077 T02061017

KPIT 081251Z 32015G21KT 10SM -RA BKN016 BKN024 OVC036 06/03 A2995 RMK AO2 RAB10 SLP156 P0000 T00610033

KSAN 081251Z 13005KT 10SM OVC026 17/09 A2994 RMK AO2 SLP137 T01720094

KSEA 081253Z 17006KT 10SM BKN016 OVC024 07/03 A3035 RMK AO2 SLP285 T00720033

KSFO 081256Z 28005KT 10SM FEW200 11/06 A3002 RMK AO2 SLP166 T01060056

KSLC 081254Z 35008KT 10SM FEW070 SCT090 08/M04 A3007 RMK AO2 SLP155 T00831039

KSTL 081251Z 10012KT 10SM FEW075 BKN095 OVC120 11/01 A3010 RMK AO2 SLP191 T01060011

KTPA 081253Z 05006KT 10SM FEW030 FEW280 22/07 A3013 RMK AO2 SLP203 T02220067 $